createdAt,value
2023-04-04T00:00:24.713Z,102377.59
2023-04-04T00:02:51.129Z,102381.09
2023-04-04T00:05:17.621Z,102373.22
2023-04-04T00:07:44.069Z,102373.59
2023-04-04T00:10:10.417Z,102369.91
2023-04-04T00:12:37.253Z,102359.53
2023-04-04T00:15:03.546Z,102364.06
2023-04-04T00:17:29.908Z,102365.72
2023-04-04T00:19:56.324Z,102372.28
2023-04-04T00:22:22.898Z,102366.09
2023-04-04T00:24:49.305Z,102355.69
2023-04-04T00:27:16.079Z,102354.72
2023-04-04T00:29:42.666Z,102354.03
2023-04-04T00:32:09.083Z,102356.72
2023-04-04T00:34:35.381Z,102347.19
2023-04-04T00:37:01.779Z,102346.34
2023-04-04T00:39:28.152Z,102350.91
2023-04-04T00:41:54.523Z,102344.84
2023-04-04T00:44:20.886Z,102352.09
2023-04-04T00:46:47.513Z,102351.41
2023-04-04T00:49:14.078Z,102345.25
2023-04-04T00:51:40.389Z,102352.63
2023-04-04T00:54:06.760Z,102350.94
2023-04-04T00:56:33.174Z,102352.16
2023-04-04T00:58:59.613Z,102349.13
2023-04-04T01:01:26.125Z,102349.28
2023-04-04T01:03:52.700Z,102342.22
2023-04-04T01:06:19.996Z,102342.22
2023-04-04T01:08:49.127Z,102344.91
2023-04-04T01:11:15.826Z,102341.41
2023-04-04T01:13:42.228Z,102349.66
2023-04-04T01:16:08.680Z,102351.69
2023-04-04T01:18:35.109Z,102348.31
2023-04-04T01:21:01.598Z,102348.31
2023-04-04T01:23:27.977Z,102348.31
2023-04-04T01:25:54.273Z,102346.31
2023-04-04T01:28:20.573Z,102338.78
2023-04-04T01:30:47.043Z,102340.47
2023-04-04T01:33:13.384Z,102343.31
2023-04-04T01:35:39.921Z,102343.50
2023-04-04T01:38:06.327Z,102330.94
2023-04-04T01:40:32.707Z,102334.97
2023-04-04T01:42:59.044Z,102333.94
2023-04-04T01:45:25.401Z,102334.16
2023-04-04T01:47:51.801Z,102327.09
2023-04-04T01:50:18.229Z,102329.97
2023-04-04T01:52:44.565Z,102320.09
2023-04-04T01:55:10.988Z,102327.94
2023-04-04T01:57:37.358Z,102329.59
2023-04-04T02:00:03.724Z,102322.94
2023-04-04T02:02:30.168Z,102321.28
2023-04-04T02:04:56.687Z,102323.78
2023-04-04T02:07:23.017Z,102315.06
2023-04-04T02:09:49.692Z,102318.75
2023-04-04T02:12:16.628Z,102314.25
2023-04-04T02:14:43.053Z,102313.56
2023-04-04T02:17:09.471Z,102316.09
2023-04-04T02:19:35.835Z,102305.19
2023-04-04T02:22:02.398Z,102304.91
2023-04-04T02:24:28.742Z,102312.75
2023-04-04T02:26:55.135Z,102310.09
2023-04-04T02:29:21.493Z,102303.03
2023-04-04T02:31:47.849Z,102311.06
2023-04-04T02:34:14.334Z,102304.19
2023-04-04T02:36:40.710Z,102306.88
2023-04-04T02:39:07.555Z,102300.88
2023-04-04T02:41:33.920Z,102295.50
2023-04-04T02:44:00.316Z,102302.88
2023-04-04T02:46:26.799Z,102302.88
2023-04-04T02:48:53.218Z,102297.50
2023-04-04T02:51:19.660Z,102291.16
2023-04-04T02:53:46.062Z,102287.63
2023-04-04T02:56:12.438Z,102285.13
2023-04-04T02:58:40.344Z,102283.63
2023-04-04T03:01:08.213Z,102285.69
2023-04-04T03:03:35.041Z,102289.19
2023-04-04T03:06:01.619Z,102279.81
2023-04-04T03:08:27.999Z,102281.13
2023-04-04T03:10:54.465Z,102280.31
2023-04-04T03:13:21.318Z,102277.81
2023-04-04T03:15:47.687Z,102278.78
2023-04-04T03:18:14.165Z,102277.13
2023-04-04T03:20:41.385Z,102271.13
2023-04-04T03:23:07.936Z,102269.66
2023-04-04T03:25:34.295Z,102271.94
2023-04-04T03:28:00.880Z,102273.81
2023-04-04T03:30:27.339Z,102274.34
2023-04-04T03:32:53.726Z,102276.00
2023-04-04T03:35:20.324Z,102270.63
2023-04-04T03:37:46.668Z,102273.69
2023-04-04T03:40:12.966Z,102274.16
2023-04-04T03:42:39.377Z,102268.81
2023-04-04T03:45:05.938Z,102278.22
2023-04-04T03:47:32.527Z,102270.34
2023-04-04T03:49:59.029Z,102272.50
2023-04-04T03:52:25.647Z,102268.50
2023-04-04T03:54:52.156Z,102267.84
2023-04-04T03:57:18.848Z,102273.88
2023-04-04T03:59:45.351Z,102262.47
2023-04-04T04:02:11.870Z,102260.81
2023-04-04T04:04:38.258Z,102256.13
2023-04-04T04:07:04.638Z,102263.16
2023-04-04T04:09:31.086Z,102268.84
2023-04-04T04:11:57.505Z,102266.00
2023-04-04T04:14:24.192Z,102268.84
2023-04-04T04:16:50.517Z,102268.84
2023-04-04T04:19:17.134Z,102264.88
2023-04-04T04:21:43.418Z,102264.50
2023-04-04T04:24:09.779Z,102262.47
2023-04-04T04:26:36.073Z,102263.03
2023-04-04T04:29:02.895Z,102261.16
2023-04-04T04:31:29.238Z,102261.16
2023-04-04T04:33:55.690Z,102264.22
2023-04-04T04:36:22.064Z,102263.38
2023-04-04T04:38:48.434Z,102261.16
2023-04-04T04:41:14.977Z,102259.88
2023-04-04T04:43:41.357Z,102260.34
2023-04-04T04:46:07.931Z,102259.50
2023-04-04T04:48:34.443Z,102265.25
2023-04-04T04:51:00.922Z,102266.91
2023-04-04T04:53:27.250Z,102267.06
2023-04-04T04:55:53.668Z,102262.72
2023-04-04T04:58:20.028Z,102268.09
2023-04-04T05:00:46.518Z,102263.59
2023-04-04T05:03:12.994Z,102269.63
2023-04-04T05:05:39.342Z,102268.44
2023-04-04T05:08:05.827Z,102266.09
2023-04-04T05:10:32.454Z,102272.31
2023-04-04T05:12:58.893Z,102268.16
2023-04-04T05:15:25.383Z,102271.63
2023-04-04T05:17:51.866Z,102275.16
2023-04-04T05:20:18.196Z,102278.69
2023-04-04T05:22:44.866Z,102279.69
2023-04-04T05:25:11.451Z,102279.06
2023-04-04T05:27:37.786Z,102282.91
2023-04-04T05:30:04.177Z,102284.56
2023-04-04T05:32:30.609Z,102288.09
2023-04-04T05:34:57.056Z,102292.13
2023-04-04T05:37:23.370Z,102288.59
2023-04-04T05:39:49.891Z,102292.31
2023-04-04T05:42:16.246Z,102302.84
2023-04-04T05:44:42.558Z,102300.50
2023-04-04T05:47:08.863Z,102300.69
2023-04-04T05:49:35.200Z,102303.53
2023-04-04T05:52:01.562Z,102296.50
2023-04-04T05:54:28.065Z,102301.03
2023-04-04T05:56:54.493Z,102312.59
2023-04-04T05:59:20.954Z,102303.06
2023-04-04T06:01:47.347Z,102304.88
2023-04-04T06:04:13.730Z,102307.59
2023-04-04T06:06:40.860Z,102309.47
2023-04-04T06:09:08.727Z,102305.25
2023-04-04T06:11:35.523Z,102314.78
2023-04-04T06:14:01.935Z,102307.09
2023-04-04T06:16:28.597Z,102310.44
2023-04-04T06:18:55.182Z,102314.78
2023-04-04T06:21:21.587Z,102308.75
2023-04-04T06:23:47.942Z,102311.25
2023-04-04T06:26:14.238Z,102311.25
2023-04-04T06:28:40.848Z,102310.25
2023-04-04T06:31:07.181Z,102307.78
2023-04-04T06:33:33.678Z,102307.09
2023-04-04T06:36:00.032Z,102310.25
2023-04-04T06:38:26.441Z,102306.75
2023-04-04T06:40:53.156Z,102311.44
2023-04-04T06:43:19.520Z,102307.56
2023-04-04T06:45:46.073Z,102306.25
2023-04-04T06:48:12.529Z,102303.41
2023-04-04T06:50:39.384Z,102298.59
2023-04-04T06:53:06.180Z,102298.59
2023-04-04T06:55:32.579Z,102300.41
2023-04-04T06:57:59.247Z,102309.28
2023-04-04T07:00:25.989Z,102302.63
2023-04-04T07:02:52.362Z,102308.78
2023-04-04T07:05:18.890Z,102305.28
2023-04-04T07:07:45.421Z,102303.81
2023-04-04T07:10:12.135Z,102307.66
2023-04-04T07:12:39.068Z,102304.78
2023-04-04T07:15:05.438Z,102299.09
2023-04-04T07:17:31.806Z,102296.75
2023-04-04T07:19:58.245Z,102294.91
2023-04-04T07:22:24.907Z,102296.75
2023-04-04T07:24:51.262Z,102298.78
2023-04-04T07:27:18.118Z,102295.75
2023-04-04T07:29:44.947Z,102301.28
2023-04-04T07:32:11.428Z,102298.63
2023-04-04T07:34:38.796Z,102291.41
2023-04-04T07:37:05.296Z,102297.94
2023-04-04T07:39:32.228Z,102290.75
2023-04-04T07:41:58.691Z,102297.94
2023-04-04T07:44:25.562Z,102287.91
2023-04-04T07:47:02.450Z,102285.91
2023-04-04T07:49:33.113Z,102282.88
2023-04-04T07:51:59.526Z,102284.53
2023-04-04T07:54:25.842Z,102280.38
2023-04-04T07:56:52.519Z,102273.34
2023-04-04T07:59:19.021Z,102276.03
2023-04-04T08:01:46.319Z,102273.53
2023-04-04T08:04:12.749Z,102272.72
2023-04-04T08:06:39.060Z,102263.84
2023-04-04T08:09:05.402Z,102267.34
2023-04-04T08:11:31.798Z,102269.03
2023-04-04T08:13:58.185Z,102272.72
2023-04-04T08:16:24.924Z,102262.16
2023-04-04T08:18:51.302Z,102265.50
2023-04-04T08:21:17.654Z,102262.00
2023-04-04T08:23:44.172Z,102256.81
2023-04-04T08:26:10.489Z,102250.44
2023-04-04T08:28:36.878Z,102251.47
2023-04-04T08:31:03.386Z,102251.47
2023-04-04T08:33:44.326Z,102255.13
2023-04-04T08:36:13.266Z,102247.78
2023-04-04T08:38:40.173Z,102244.91
2023-04-04T08:41:06.603Z,102242.41
2023-04-04T08:43:32.959Z,102250.78
2023-04-04T08:45:59.322Z,102244.41
2023-04-04T08:48:25.725Z,102248.78
2023-04-04T08:50:52.371Z,102251.47
2023-04-04T08:53:18.743Z,102246.28
2023-04-04T08:55:45.102Z,102246.28
2023-04-04T08:58:11.534Z,102250.63
2023-04-04T09:00:38.226Z,102243.94
2023-04-04T09:03:05.043Z,102243.94
2023-04-04T09:05:31.371Z,102247.47
2023-04-04T09:07:57.733Z,102245.81
2023-04-04T09:10:24.282Z,102234.25
2023-04-04T09:12:51.782Z,102239.59
2023-04-04T09:15:18.892Z,102241.44
2023-04-04T09:17:45.258Z,102237.09
2023-04-04T09:20:11.551Z,102234.41
2023-04-04T09:22:38.267Z,102231.72
2023-04-04T09:25:04.662Z,102228.59
2023-04-04T09:27:31.024Z,102230.41
2023-04-04T09:29:57.520Z,102227.75
2023-04-04T09:32:24.134Z,102230.59
2023-04-04T09:34:50.718Z,102233.09
2023-04-04T09:37:17.068Z,102233.44
2023-04-04T09:39:43.625Z,102227.09
2023-04-04T09:42:10.205Z,102224.41
2023-04-04T09:44:36.536Z,102235.13
2023-04-04T09:47:02.860Z,102234.28
2023-04-04T09:49:29.120Z,102236.31
2023-04-04T09:51:55.569Z,102231.78
2023-04-04T09:54:28.850Z,102227.25
2023-04-04T09:56:56.437Z,102225.78
2023-04-04T09:59:22.985Z,102224.75
2023-04-04T10:01:49.447Z,102225.59
2023-04-04T10:04:15.873Z,102232.09
2023-04-04T10:06:42.254Z,102225.09
2023-04-04T10:09:08.868Z,102224.44
2023-04-04T10:11:35.231Z,102222.41
2023-04-04T10:14:01.766Z,102221.59
2023-04-04T10:16:28.172Z,102219.09
2023-04-04T10:18:54.638Z,102221.59
2023-04-04T10:21:21.056Z,102220.75
2023-04-04T10:23:47.396Z,102216.25
2023-04-04T10:26:13.787Z,102220.94
2023-04-04T10:28:40.155Z,102215.41
2023-04-04T10:31:07.376Z,102209.56
2023-04-04T10:33:34.047Z,102212.09
2023-04-04T10:36:00.426Z,102202.34
2023-04-04T10:38:27.234Z,102206.72
2023-04-04T10:40:53.565Z,102207.72
2023-04-04T10:43:20.020Z,102195.34
2023-04-04T10:45:46.820Z,102200.69
2023-04-04T10:48:13.571Z,102196.84
2023-04-04T10:50:39.929Z,102200.69
2023-04-04T10:53:06.237Z,102194.31
2023-04-04T10:55:32.567Z,102197.38
2023-04-04T10:57:59.037Z,102193.69
2023-04-04T11:00:25.504Z,102190.00
2023-04-04T11:02:51.817Z,102184.81
2023-04-04T11:05:18.163Z,102175.13
2023-04-04T11:07:53.926Z,102178.44
2023-04-04T11:10:30.727Z,102177.78
2023-04-04T11:13:11.349Z,102169.59
2023-04-04T11:15:39.071Z,102171.41
2023-04-04T11:18:14.263Z,102168.09
2023-04-04T11:20:52.182Z,102164.56
2023-04-04T11:23:18.880Z,102165.25
2023-04-04T11:25:45.257Z,102164.56
2023-04-04T11:28:11.623Z,102166.41
2023-04-04T11:30:37.943Z,102165.44
2023-04-04T11:33:07.838Z,102155.69
2023-04-04T11:35:34.721Z,102147.84
2023-04-04T11:38:01.095Z,102145.34
2023-04-04T11:40:27.554Z,102139.97
2023-04-04T11:42:54.258Z,102141.81
2023-04-04T11:45:20.842Z,102139.97
2023-04-04T11:47:47.701Z,102126.78
2023-04-04T11:50:14.098Z,102124.75
2023-04-04T11:52:40.455Z,102137.47
2023-04-04T11:55:07.066Z,102124.75
2023-04-04T11:57:33.618Z,102130.47
2023-04-04T11:59:59.949Z,102125.13
2023-04-04T12:02:26.717Z,102125.59
2023-04-04T12:04:53.148Z,102126.94
2023-04-04T12:07:19.534Z,102121.75
2023-04-04T12:09:46.050Z,102123.41
2023-04-04T12:12:12.409Z,102113.38
2023-04-04T12:14:38.742Z,102120.56
2023-04-04T12:17:05.382Z,102111.06
2023-04-04T12:19:31.835Z,102098.34
2023-04-04T12:21:58.219Z,102103.88
2023-04-04T12:24:24.594Z,102103.03
2023-04-04T12:26:50.923Z,102104.03
2023-04-04T12:29:17.257Z,102100.34
2023-04-04T12:31:44.105Z,102098.69
2023-04-04T12:34:10.463Z,102087.31
2023-04-04T12:36:37.331Z,102091.50
2023-04-04T12:39:03.860Z,102082.63
2023-04-04T12:41:30.351Z,102077.28
2023-04-04T12:43:57.142Z,102069.09
2023-04-04T12:46:23.938Z,102069.09
2023-04-04T12:48:50.399Z,102067.59
2023-04-04T12:51:17.345Z,102056.91
2023-04-04T12:53:43.768Z,102056.91
2023-04-04T12:56:10.093Z,102051.38
2023-04-04T12:58:37.625Z,102055.88
2023-04-04T13:01:04.443Z,102061.22
2023-04-04T13:03:31.035Z,102052.53
2023-04-04T13:05:57.697Z,102065.91
2023-04-04T13:08:24.256Z,102057.53
2023-04-04T13:10:50.579Z,102055.41
2023-04-04T13:13:16.925Z,102050.06
2023-04-04T13:15:43.230Z,102040.84
2023-04-04T13:18:10.181Z,102039.81
2023-04-04T13:20:36.496Z,102035.47
2023-04-04T13:23:02.839Z,102039.47
2023-04-04T13:25:29.415Z,102049.50
2023-04-04T13:27:55.773Z,102040.09
2023-04-04T13:30:22.302Z,102040.38
2023-04-04T13:32:48.838Z,102032.84
2023-04-04T13:35:15.205Z,102040.16
2023-04-04T13:37:41.564Z,102038.78
2023-04-04T13:40:08.387Z,102036.41
2023-04-04T13:42:35.164Z,102040.66
2023-04-04T13:45:01.957Z,102031.94
2023-04-04T13:47:28.711Z,102023.16
2023-04-04T13:49:55.080Z,102026.97
2023-04-04T13:52:21.420Z,102018.84
2023-04-04T13:54:47.862Z,102008.59
2023-04-04T13:57:14.682Z,102010.72
2023-04-04T13:59:41.024Z,101995.94
2023-04-04T14:02:07.354Z,101998.06
2023-04-04T14:04:33.842Z,102000.19
2023-04-04T14:07:00.308Z,101992.44
2023-04-04T14:09:26.612Z,101996.41
2023-04-04T14:11:53.120Z,101989.66
2023-04-04T14:14:19.891Z,101988.09
2023-04-04T14:16:46.676Z,101979.28
2023-04-04T14:19:13.379Z,101979.56
2023-04-04T14:21:40.023Z,101983.38
2023-04-04T14:24:06.508Z,101987.16
2023-04-04T14:26:34.204Z,101978.53
2023-04-04T14:29:01.477Z,101985.84
2023-04-04T14:31:27.839Z,101978.25
2023-04-04T14:33:54.672Z,101975.81
2023-04-04T14:36:21.156Z,101970.94
2023-04-04T14:38:47.586Z,101969.31
2023-04-04T14:41:14.018Z,101973.09
2023-04-04T14:43:40.381Z,101963.66
2023-04-04T14:46:06.838Z,101966.59
2023-04-04T14:48:33.326Z,101972.44
2023-04-04T14:50:59.800Z,101967.50
2023-04-04T14:53:26.442Z,101961.34
2023-04-04T14:55:53.013Z,101975.44
2023-04-04T14:58:19.502Z,101967.63
2023-04-04T15:00:46.303Z,101958.16
2023-04-04T15:03:12.800Z,101959.63
2023-04-04T15:05:39.776Z,101957.19
2023-04-04T15:08:06.544Z,101957.44
2023-04-04T15:10:33.271Z,101957.91
2023-04-04T15:13:00.208Z,101954.63
2023-04-04T15:15:26.855Z,101955.72
2023-04-04T15:17:53.346Z,101955.34
2023-04-04T15:20:19.940Z,101948.56
2023-04-04T15:22:46.271Z,101952.06
2023-04-04T15:25:12.594Z,101947.97
2023-04-04T15:27:39.633Z,101943.25
2023-04-04T15:30:06.307Z,101949.06
2023-04-04T15:32:32.874Z,101955.69
2023-04-04T15:34:59.526Z,101948.91
2023-04-04T15:37:25.908Z,101945.00
2023-04-04T15:39:53.900Z,101939.44
2023-04-04T15:42:20.833Z,101944.41
2023-04-04T15:44:47.454Z,101946.06
2023-04-04T15:47:13.900Z,101949.00
2023-04-04T15:49:40.210Z,101946.97
2023-04-04T15:52:06.871Z,101945.06
2023-04-04T15:54:33.319Z,101938.47
2023-04-04T15:56:59.710Z,101933.94
2023-04-04T15:59:26.328Z,101939.13
2023-04-04T16:01:53.454Z,101938.72
2023-04-04T16:04:19.827Z,101935.63
2023-04-04T16:06:46.192Z,101929.03
2023-04-04T16:09:12.837Z,101935.88
2023-04-04T16:11:39.810Z,101941.50
2023-04-04T16:14:06.353Z,101939.22
2023-04-04T16:16:32.715Z,101934.28
2023-04-04T16:18:59.454Z,101937.41
2023-04-04T16:21:25.994Z,101936.81
2023-04-04T16:23:52.288Z,101937.88
2023-04-04T16:26:18.606Z,101934.78
2023-04-04T16:28:46.931Z,101927.56
2023-04-04T16:31:13.532Z,101929.66
2023-04-04T16:33:39.982Z,101927.38
2023-04-04T16:36:06.355Z,101924.13
2023-04-04T16:38:32.698Z,101921.00
2023-04-04T16:40:59.144Z,101917.34
2023-04-04T16:43:25.484Z,101914.44
2023-04-04T16:45:52.072Z,101917.56
2023-04-04T16:48:18.643Z,101919.00
2023-04-04T16:50:44.984Z,101918.81
2023-04-04T16:53:11.331Z,101910.34
2023-04-04T16:55:37.813Z,101910.78
2023-04-04T16:58:04.141Z,101909.78
2023-04-04T17:00:30.600Z,101910.31
2023-04-04T17:02:56.981Z,101906.66
2023-04-04T17:05:23.577Z,101901.28
2023-04-04T17:07:50.408Z,101908.34
2023-04-04T17:10:17.145Z,101894.03
2023-04-04T17:12:43.573Z,101896.16
2023-04-04T17:15:09.891Z,101899.59
2023-04-04T17:17:36.249Z,101897.75
2023-04-04T17:20:02.734Z,101896.66
2023-04-04T17:22:29.618Z,101904.44
2023-04-04T17:24:55.924Z,101902.66
2023-04-04T17:27:22.287Z,101899.59
2023-04-04T17:29:49.162Z,101897.53
2023-04-04T17:32:15.930Z,101896.72
2023-04-04T17:34:42.560Z,101901.94
2023-04-04T17:37:09.102Z,101899.91
2023-04-04T17:39:35.481Z,101895.34
2023-04-04T17:42:02.008Z,101898.06
2023-04-04T17:44:28.417Z,101900.34
2023-04-04T17:46:54.939Z,101892.09
2023-04-04T17:49:21.378Z,101893.34
2023-04-04T17:51:47.710Z,101894.56
2023-04-04T17:54:14.121Z,101897.50
2023-04-04T17:56:40.675Z,101892.50
2023-04-04T17:59:07.147Z,101894.56
2023-04-04T18:01:33.944Z,101900.22
2023-04-04T18:04:00.588Z,101895.84
2023-04-04T18:06:27.606Z,101895.22
2023-04-04T18:08:54.070Z,101895.44
2023-04-04T18:11:20.884Z,101897.09
2023-04-04T18:13:47.242Z,101895.63
2023-04-04T18:16:13.663Z,101897.53
2023-04-04T18:18:40.042Z,101897.53
2023-04-04T18:21:07.036Z,101891.28
2023-04-04T18:23:33.781Z,101894.19
2023-04-04T18:26:00.306Z,101896.91
2023-04-04T18:28:27.463Z,101894.59
2023-04-04T18:30:54.056Z,101895.44
2023-04-04T18:33:20.542Z,101897.31
2023-04-04T18:35:46.982Z,101900.00
2023-04-04T18:38:13.481Z,101896.91
2023-04-04T18:40:40.004Z,101895.84
2023-04-04T18:43:06.480Z,101890.69
2023-04-04T18:45:39.307Z,101890.91
2023-04-04T18:48:07.312Z,101892.97
2023-04-04T18:50:33.734Z,101892.97
2023-04-04T18:53:00.154Z,101895.66
2023-04-04T18:55:26.824Z,101895.88
2023-04-04T18:57:53.310Z,101893.19
2023-04-04T19:00:19.682Z,101892.38
2023-04-04T19:02:46.205Z,101889.44
2023-04-04T19:05:12.581Z,101891.53
2023-04-04T19:07:39.211Z,101886.97
2023-04-04T19:10:05.616Z,101890.47
2023-04-04T19:12:32.089Z,101896.91
2023-04-04T19:14:58.407Z,101897.13
2023-04-04T19:17:24.874Z,101902.50
2023-04-04T19:19:51.274Z,101902.72
2023-04-04T19:22:17.628Z,101902.91
2023-04-04T19:24:44.470Z,101895.06
2023-04-04T19:27:10.853Z,101902.53
2023-04-04T19:29:37.187Z,101900.66
2023-04-04T19:32:04.981Z,101888.00
2023-04-04T19:34:32.457Z,101896.09
2023-04-04T19:37:03.265Z,101897.78
2023-04-04T19:39:30.034Z,101895.28
2023-04-04T19:41:56.452Z,101889.25
2023-04-04T19:44:23.274Z,101891.75
2023-04-04T19:46:49.639Z,101887.59
2023-04-04T19:49:16.138Z,101893.59
2023-04-04T19:51:42.489Z,101885.94
2023-04-04T19:54:09.122Z,101892.16
2023-04-04T19:56:35.898Z,101886.16
2023-04-04T19:59:02.486Z,101893.41
2023-04-04T20:01:28.985Z,101890.91
2023-04-04T20:03:55.644Z,101893.59
2023-04-04T20:06:22.130Z,101893.41
2023-04-04T20:08:49.121Z,101892.97
2023-04-04T20:11:15.499Z,101888.41
2023-04-04T20:13:41.788Z,101882.00
2023-04-04T20:16:08.681Z,101889.22
2023-04-04T20:18:35.148Z,101889.22
2023-04-04T20:21:01.530Z,101882.19
2023-04-04T20:23:28.161Z,101879.69
2023-04-04T20:25:54.522Z,101882.41
2023-04-04T20:28:20.829Z,101878.91
2023-04-04T20:30:47.156Z,101874.31
2023-04-04T20:33:13.723Z,101879.91
2023-04-04T20:35:40.330Z,101881.38
2023-04-04T20:38:06.657Z,101884.25
2023-04-04T20:40:33.043Z,101877.22
2023-04-04T20:42:59.494Z,101879.31
2023-04-04T20:45:25.923Z,101875.16
2023-04-04T20:47:52.384Z,101873.50
2023-04-04T20:50:19.026Z,101879.13
2023-04-04T20:52:45.553Z,101880.13
2023-04-04T20:55:12.017Z,101877.03
2023-04-04T20:57:38.359Z,101879.91
2023-04-04T21:00:04.940Z,101882.63
2023-04-04T21:02:31.664Z,101887.19
2023-04-04T21:04:58.141Z,101887.59
2023-04-04T21:07:25.068Z,101892.78
2023-04-04T21:09:51.817Z,101889.25
2023-04-04T21:12:18.120Z,101876.63
2023-04-04T21:14:44.756Z,101884.06
2023-04-04T21:17:11.163Z,101882.22
2023-04-04T21:19:37.529Z,101873.50
2023-04-04T21:22:04.349Z,101877.88
2023-04-04T21:24:31.318Z,101873.94
2023-04-04T21:26:57.744Z,101866.66
2023-04-04T21:29:24.121Z,101874.72
2023-04-04T21:31:50.526Z,101867.28
2023-04-04T21:34:16.919Z,101862.50
2023-04-04T21:36:43.355Z,101867.91
2023-04-04T21:39:09.818Z,101865.41
2023-04-04T21:41:36.167Z,101858.38
2023-04-04T21:44:02.559Z,101861.28
2023-04-04T21:46:29.043Z,101861.47
2023-04-04T21:48:55.834Z,101856.09
2023-04-04T21:51:23.213Z,101860.22
2023-04-04T21:53:49.531Z,101866.84
2023-04-04T21:56:16.949Z,101866.03
2023-04-04T21:58:43.570Z,101860.22
2023-04-04T22:01:10.301Z,101866.25
2023-04-04T22:03:37.086Z,101862.09
2023-04-04T22:06:03.422Z,101868.09
2023-04-04T22:08:30.273Z,101868.47
2023-04-04T22:10:56.765Z,101865.78
2023-04-04T22:13:23.174Z,101865.59
2023-04-04T22:15:49.531Z,101860.00
2023-04-04T22:18:15.893Z,101859.16
2023-04-04T22:20:42.585Z,101860.38
2023-04-04T22:23:09.100Z,101857.69
2023-04-04T22:25:35.454Z,101849.00
2023-04-04T22:28:01.938Z,101854.19
2023-04-04T22:30:28.326Z,101850.06
2023-04-04T22:32:55.153Z,101845.91
2023-04-04T22:35:21.640Z,101843.63
2023-04-04T22:37:48.003Z,101846.31
2023-04-04T22:40:14.544Z,101847.72
2023-04-04T22:42:41.044Z,101849.38
2023-04-04T22:45:07.795Z,101841.69
2023-04-04T22:47:34.132Z,101841.50
2023-04-04T22:50:00.528Z,101842.31
2023-04-04T22:52:27.429Z,101839.00
2023-04-04T22:54:53.881Z,101841.69
2023-04-04T22:57:20.696Z,101837.34
2023-04-04T22:59:47.018Z,101828.84
2023-04-04T23:02:13.310Z,101834.84
2023-04-04T23:04:40.085Z,101837.75
2023-04-04T23:07:06.460Z,101838.97
2023-04-04T23:09:33.482Z,101833.19
2023-04-04T23:11:59.947Z,101843.53
2023-04-04T23:14:26.314Z,101836.72
2023-04-04T23:16:52.789Z,101841.44
2023-04-04T23:19:19.609Z,101846.00
2023-04-04T23:21:46.384Z,101840.38
2023-04-04T23:24:12.784Z,101840.16
2023-04-04T23:26:39.946Z,101841.81
2023-04-04T23:29:06.217Z,101837.69
2023-04-04T23:31:32.648Z,101844.94
2023-04-04T23:33:58.984Z,101842.63
2023-04-04T23:36:25.422Z,101842.63
2023-04-04T23:38:51.817Z,101839.72
2023-04-04T23:41:18.873Z,101847.16
2023-04-04T23:43:45.163Z,101850.25
2023-04-04T23:46:11.715Z,101843.84
2023-04-04T23:48:38.167Z,101836.19
2023-04-04T23:51:04.685Z,101830.81
2023-04-04T23:53:31.189Z,101821.47
2023-04-04T23:55:57.539Z,101823.34
2023-04-04T23:58:23.971Z,101826.44
